createdAt,value
2023-02-09T00:02:02.612Z,102329.09
2023-02-09T00:07:03.736Z,102321.41
2023-02-09T00:12:23.777Z,102318.78
2023-02-09T00:17:24.484Z,102313.00
2023-02-09T00:22:25.154Z,102323.97
2023-02-09T00:27:27.172Z,102314.75
2023-02-09T00:32:27.873Z,102303.22
2023-02-09T00:37:28.590Z,102300.41
2023-02-09T00:42:30.595Z,102295.06
2023-02-09T00:47:31.256Z,102281.91
2023-02-09T00:52:31.925Z,102279.56
2023-02-09T00:57:33.933Z,102279.84
2023-02-09T01:02:34.720Z,102280.53
2023-02-09T01:07:35.710Z,102280.25
2023-02-09T01:12:40.173Z,102278.56
2023-02-09T01:17:41.072Z,102280.03
2023-02-09T01:22:41.860Z,102266.66
2023-02-09T01:27:43.867Z,102261.72
2023-02-09T01:32:44.971Z,102264.81
2023-02-09T01:37:46.720Z,102254.75
2023-02-09T01:42:50.185Z,102260.25
2023-02-09T01:47:56.402Z,102249.25
2023-02-09T01:52:58.956Z,102245.72
2023-02-09T01:58:10.076Z,102252.91
2023-02-09T02:03:15.319Z,102247.22
2023-02-09T02:08:20.206Z,102243.72
2023-02-09T02:13:22.543Z,102243.31
2023-02-09T02:18:39.514Z,102246.75
2023-02-09T02:23:49.358Z,102245.31
2023-02-09T02:29:17.279Z,102243.25
2023-02-09T02:34:24.138Z,102248.03
2023-02-09T02:39:30.189Z,102235.19
2023-02-09T02:44:32.933Z,102229.31
2023-02-09T02:49:42.051Z,102231.34
2023-02-09T02:54:47.516Z,102224.88
2023-02-09T02:59:54.025Z,102220.13
2023-02-09T03:04:59.913Z,102231.13
2023-02-09T03:10:03.108Z,102219.84
2023-02-09T03:15:16.355Z,102225.84
2023-02-09T03:20:27.054Z,102228.50
2023-02-09T03:25:32.852Z,102222.69
2023-02-09T03:30:35.269Z,102231.56
2023-02-09T03:35:40.580Z,102232.06
2023-02-09T03:40:41.319Z,102226.97
2023-02-09T03:45:41.997Z,102222.66
2023-02-09T03:50:44.350Z,102227.91
2023-02-09T03:55:47.265Z,102220.88
2023-02-09T04:00:48.025Z,102219.47
2023-02-09T04:05:50.044Z,102209.56
2023-02-09T04:10:50.736Z,102201.25
2023-02-09T04:15:51.623Z,102198.38
2023-02-09T04:20:53.730Z,102204.69
2023-02-09T04:25:54.403Z,102202.81
2023-02-09T04:30:55.986Z,102195.75
2023-02-09T04:35:58.369Z,102194.28
2023-02-09T04:41:01.585Z,102188.59
2023-02-09T04:46:02.423Z,102191.16
2023-02-09T04:51:04.738Z,102195.69
2023-02-09T04:56:06.316Z,102186.75
2023-02-09T05:01:08.266Z,102186.56
2023-02-09T05:06:10.418Z,102183.50
2023-02-09T05:11:11.491Z,102185.91
2023-02-09T05:16:15.901Z,102176.69
2023-02-09T05:21:17.973Z,102179.28
2023-02-09T05:26:18.665Z,102173.38
2023-02-09T05:31:19.428Z,102170.56
2023-02-09T05:36:21.518Z,102173.88
2023-02-09T05:41:36.187Z,102181.41
2023-02-09T05:46:36.870Z,102177.28
2023-02-09T05:51:38.896Z,102171.69
2023-02-09T05:56:40.772Z,102185.13
2023-02-09T06:01:41.440Z,102179.69
2023-02-09T06:06:43.495Z,102183.03
2023-02-09T06:11:44.212Z,102171.69
2023-02-09T06:16:45.241Z,102175.53
2023-02-09T06:21:47.691Z,102190.03
2023-02-09T06:26:48.377Z,102194.78
2023-02-09T06:31:49.194Z,102194.56
2023-02-09T06:36:51.216Z,102192.25
2023-02-09T06:41:52.373Z,102193.88
2023-02-09T06:46:53.039Z,102201.41
2023-02-09T06:51:55.077Z,102202.06
2023-02-09T06:56:56.020Z,102196.88
2023-02-09T07:01:56.713Z,102198.53
2023-02-09T07:06:58.749Z,102196.53
2023-02-09T07:11:59.429Z,102182.94
2023-02-09T07:17:00.175Z,102184.84
2023-02-09T07:22:02.156Z,102193.00
2023-02-09T07:27:02.796Z,102195.75
2023-02-09T07:32:03.600Z,102196.63
2023-02-09T07:37:06.171Z,102207.75
2023-02-09T07:42:07.007Z,102212.09
2023-02-09T07:47:21.993Z,102210.53
2023-02-09T07:52:24.004Z,102205.88
2023-02-09T07:57:24.649Z,102210.34
2023-02-09T08:02:30.252Z,102203.16
2023-02-09T08:07:32.804Z,102202.00
2023-02-09T08:12:47.590Z,102214.78
2023-02-09T08:17:48.829Z,102219.59
2023-02-09T08:22:55.401Z,102211.84
2023-02-09T08:27:57.079Z,102225.16
2023-02-09T08:32:57.812Z,102230.81
2023-02-09T08:38:02.389Z,102220.56
2023-02-09T08:43:03.102Z,102217.66
2023-02-09T08:48:03.932Z,102215.00
2023-02-09T08:53:06.501Z,102212.56
2023-02-09T08:58:07.727Z,102207.75
2023-02-09T09:03:08.397Z,102211.16
2023-02-09T09:08:10.431Z,102209.00
2023-02-09T09:13:11.096Z,102204.16
2023-02-09T09:18:12.988Z,102210.75
2023-02-09T09:23:15.636Z,102219.03
2023-02-09T09:28:16.785Z,102207.25
2023-02-09T09:33:17.617Z,102210.78
2023-02-09T09:38:19.796Z,102206.75
2023-02-09T09:43:25.641Z,102211.50
2023-02-09T09:48:28.149Z,102207.44
2023-02-09T09:53:33.508Z,102205.56
2023-02-09T09:58:35.568Z,102212.34
2023-02-09T10:03:36.300Z,102203.41
2023-02-09T10:08:44.753Z,102200.81
2023-02-09T10:13:49.513Z,102210.53
2023-02-09T10:18:54.780Z,102213.25
2023-02-09T10:24:13.922Z,102214.25
2023-02-09T10:29:25.160Z,102180.91
2023-02-09T10:34:32.802Z,102178.97
2023-02-09T10:39:36.744Z,102171.94
2023-02-09T10:44:51.281Z,102152.94
2023-02-09T10:49:54.933Z,102146.69
2023-02-09T10:54:59.929Z,102145.56
2023-02-09T11:00:04.422Z,102141.41
2023-02-09T11:05:32.700Z,102135.94
2023-02-09T11:10:39.985Z,102113.53
2023-02-09T11:15:48.859Z,102103.81
2023-02-09T11:20:53.110Z,102100.94
2023-02-09T11:26:01.995Z,102097.06
2023-02-09T11:31:24.989Z,102088.28
2023-02-09T11:36:41.891Z,102074.78
2023-02-09T11:42:07.433Z,102066.06
2023-02-09T11:47:12.084Z,102063.25
2023-02-09T11:52:18.262Z,102057.28
2023-02-09T11:57:29.596Z,102049.25
2023-02-09T12:02:46.156Z,102030.66
2023-02-09T12:08:07.883Z,102027.56
2023-02-09T12:13:24.074Z,102010.78
2023-02-09T12:18:27.572Z,102005.97
2023-02-09T12:23:32.874Z,102007.72
2023-02-09T12:28:45.285Z,102002.91
2023-02-09T12:34:11.488Z,101991.78
2023-02-09T12:39:24.258Z,101974.03
2023-02-09T12:44:39.854Z,101963.63
2023-02-09T12:49:40.976Z,101953.72
2023-02-09T12:54:44.860Z,101928.56
2023-02-09T13:00:28.856Z,101920.72
2023-02-09T13:05:33.680Z,101930.41
2023-02-09T13:10:40.190Z,101947.34
2023-02-09T13:15:53.861Z,101933.16
2023-02-09T13:21:13.998Z,101927.03
2023-02-09T13:26:22.009Z,101926.91
2023-02-09T13:31:37.287Z,101924.28
2023-02-09T13:36:47.345Z,101907.28
2023-02-09T13:41:50.015Z,101875.41
2023-02-09T13:46:59.932Z,101893.69
2023-02-09T13:52:15.486Z,101911.50
2023-02-09T13:57:29.477Z,101911.28
2023-02-09T14:02:31.613Z,101917.19
2023-02-09T14:07:34.902Z,101915.00
2023-02-09T14:12:52.529Z,101913.31
2023-02-09T14:17:56.301Z,101921.25
2023-02-09T14:22:59.120Z,101914.34
2023-02-09T14:27:59.961Z,101932.22
2023-02-09T14:33:03.447Z,101932.03
2023-02-09T14:38:04.990Z,101930.03
2023-02-09T14:43:24.916Z,101927.97
2023-02-09T14:48:28.675Z,101932.41
2023-02-09T14:53:31.920Z,101931.31
2023-02-09T14:58:33.616Z,101933.66
2023-02-09T15:03:35.633Z,101923.31
2023-02-09T15:08:38.978Z,101916.69
2023-02-09T15:13:40.113Z,101927.38
2023-02-09T15:18:42.177Z,101917.59
2023-02-09T15:23:42.873Z,101923.09
2023-02-09T15:28:44.128Z,101923.63
2023-02-09T15:33:46.133Z,101915.53
2023-02-09T15:38:46.990Z,101938.00
2023-02-09T15:44:05.486Z,101941.50
2023-02-09T15:49:07.613Z,101936.72
2023-02-09T15:54:13.505Z,101938.84
2023-02-09T15:59:18.858Z,101939.72
2023-02-09T16:04:20.965Z,101952.44
2023-02-09T16:09:26.658Z,101948.16
2023-02-09T16:14:28.353Z,101952.28
2023-02-09T16:19:30.568Z,101953.59
2023-02-09T16:24:34.610Z,101964.53
2023-02-09T16:29:35.368Z,101966.16
2023-02-09T16:34:37.367Z,101968.91
2023-02-09T16:39:38.071Z,101979.22
2023-02-09T16:44:38.716Z,101959.25
2023-02-09T16:49:42.501Z,101971.25
2023-02-09T16:54:45.798Z,101986.63
2023-02-09T16:59:46.807Z,101999.88
2023-02-09T17:04:48.889Z,101999.88
2023-02-09T17:09:49.653Z,102002.44
2023-02-09T17:14:50.327Z,101998.69
2023-02-09T17:20:00.747Z,102017.28
2023-02-09T17:25:01.633Z,102017.44
2023-02-09T17:30:02.341Z,102016.47
2023-02-09T17:35:04.569Z,102025.97
2023-02-09T17:40:05.779Z,102029.53
2023-02-09T17:45:11.678Z,102032.78
2023-02-09T17:50:13.714Z,102047.09
2023-02-09T17:55:26.564Z,102043.09
2023-02-09T18:00:28.781Z,102053.56
2023-02-09T18:05:34.800Z,102048.13
2023-02-09T18:10:36.089Z,102053.16
2023-02-09T18:15:40.458Z,102044.38
2023-02-09T18:20:42.859Z,102030.59
2023-02-09T18:25:43.806Z,102039.38
2023-02-09T18:30:45.357Z,102036.09
2023-02-09T18:35:47.725Z,102035.50
2023-02-09T18:40:48.584Z,102032.50
2023-02-09T18:45:49.569Z,102031.72
2023-02-09T18:50:53.002Z,102035.00
2023-02-09T18:55:54.380Z,102036.94
2023-02-09T19:00:55.181Z,102033.97
2023-02-09T19:05:57.206Z,102027.75
2023-02-09T19:10:57.895Z,102036.75
2023-02-09T19:15:58.653Z,102036.69
2023-02-09T19:21:04.770Z,102030.69
2023-02-09T19:26:06.598Z,102028.28
2023-02-09T19:31:11.704Z,102035.72
2023-02-09T19:36:13.763Z,102039.16
2023-02-09T19:41:14.450Z,102045.69
2023-02-09T19:46:15.227Z,102049.47
2023-02-09T19:51:17.345Z,102049.75
2023-02-09T19:56:20.807Z,102051.06
2023-02-09T20:01:22.023Z,102037.06
2023-02-09T20:06:24.929Z,102042.81
2023-02-09T20:11:25.657Z,102050.72
2023-02-09T20:16:28.364Z,102056.78
2023-02-09T20:21:30.455Z,102046.97
2023-02-09T20:26:33.079Z,102051.09
2023-02-09T20:31:36.826Z,102044.88
2023-02-09T20:36:41.289Z,102048.38
2023-02-09T20:42:02.298Z,102046.63
2023-02-09T20:47:03.108Z,102049.34
2023-02-09T20:52:05.345Z,102038.72
2023-02-09T20:57:06.402Z,102042.69
2023-02-09T21:02:07.131Z,102032.75
2023-02-09T21:07:09.286Z,102023.38
2023-02-09T21:12:10.030Z,102029.16
2023-02-09T21:17:10.981Z,102023.69
2023-02-09T21:22:14.678Z,102039.03
2023-02-09T21:27:15.322Z,102041.38
2023-02-09T21:32:16.073Z,102049.84
2023-02-09T21:37:18.090Z,102063.56
2023-02-09T21:42:28.682Z,102060.72
2023-02-09T21:47:30.565Z,102069.78
2023-02-09T21:52:34.527Z,102085.03
2023-02-09T21:57:35.479Z,102087.06
2023-02-09T22:02:36.985Z,102091.16
2023-02-09T22:07:39.105Z,102095.59
2023-02-09T22:12:40.899Z,102105.81
2023-02-09T22:17:41.574Z,102102.56
2023-02-09T22:22:45.400Z,102110.22
2023-02-09T22:27:46.077Z,102116.50
2023-02-09T22:32:46.820Z,102116.94
2023-02-09T22:37:48.861Z,102105.38
2023-02-09T22:42:49.710Z,102100.78
2023-02-09T22:47:50.389Z,102105.16
2023-02-09T22:52:52.382Z,102107.19
2023-02-09T22:57:53.060Z,102111.88
2023-02-09T23:02:54.313Z,102099.66
2023-02-09T23:07:56.309Z,102109.19
2023-02-09T23:12:56.959Z,102101.44
2023-02-09T23:17:57.600Z,102106.63
2023-02-09T23:23:01.418Z,102113.56
2023-02-09T23:28:02.198Z,102102.41
2023-02-09T23:33:02.958Z,102099.44
2023-02-09T23:38:04.983Z,102096.31
2023-02-09T23:43:05.737Z,102101.25
2023-02-09T23:48:07.194Z,102108.94
2023-02-09T23:53:09.177Z,102124.91
2023-02-09T23:58:09.825Z,102130.53
